Time;durP1;ratioP1;P1;durP2;ratioP2;P2;SDS_P1;SDS_P2;PMS_P1;PMS_P2;Temp;Humidity;BMP_temperature;BMP_pressure;BME280_temperature;BME280_humidity;BME280_pressure;Samples;Min_cycle;Max_cycle;Signal;HPM_P1;HPM_P2
2022/01/03 00:00:45;;;;;;;10.63;2.90;;;10.00;99.90;;;;;;4993417;28;20432;-82
2022/01/03 00:03:13;;;;;;;10.13;2.83;;;9.90;99.90;;;;;;4993184;28;20833;-82
2022/01/03 00:05:38;;;;;;;8.57;3.20;;;9.90;99.90;;;;;;4993446;28;20536;-82
2022/01/03 00:08:05;;;;;;;15.43;3.10;;;9.90;99.90;;;;;;4993959;28;20544;-81
2022/01/03 00:10:33;;;;;;;7.07;2.20;;;10.00;99.90;;;;;;4995061;28;20226;-82
2022/01/03 00:12:59;;;;;;;6.60;2.70;;;10.00;99.90;;;;;;4994069;28;20434;-83
2022/01/03 00:15:25;;;;;;;12.50;3.23;;;10.00;99.90;;;;;;4992808;28;20437;-82
2022/01/03 00:17:53;;;;;;;8.53;3.03;;;10.00;99.90;;;;;;4992578;28;20424;-81
2022/01/03 00:20:20;;;;;;;17.77;5.17;;;10.00;99.90;;;;;;4996425;28;20804;-82
2022/01/03 00:22:55;;;;;;;13.17;2.70;;;9.90;99.90;;;;;;4997898;28;20436;-83
2022/01/03 00:25:23;;;;;;;6.27;2.70;;;9.90;99.90;;;;;;4997594;28;20460;-82
2022/01/03 00:27:57;;;;;;;11.23;3.33;;;9.90;99.90;;;;;;4997772;28;20461;-83
2022/01/03 00:30:25;;;;;;;8.23;2.50;;;10.00;99.90;;;;;;4997937;28;20922;-81
2022/01/03 00:32:51;;;;;;;10.80;3.60;;;10.00;99.90;;;;;;4996285;28;20413;-83
2022/01/03 00:35:21;;;;;;;13.53;4.23;;;10.00;99.90;;;;;;4997509;28;20843;-82
2022/01/03 00:37:47;;;;;;;8.67;3.17;;;10.10;99.90;;;;;;4996402;28;20413;-83
2022/01/03 00:40:16;;;;;;;10.87;3.00;;;10.10;99.90;;;;;;4997260;28;20427;-82
2022/01/03 00:42:42;;;;;;;9.93;3.20;;;10.10;99.90;;;;;;4980198;28;20515;-81
2022/01/03 00:45:09;;;;;;;7.10;2.60;;;10.10;99.90;;;;;;4996254;28;20444;-83
2022/01/03 00:47:35;;;;;;;8.27;2.50;;;10.10;99.90;;;;;;4995613;28;20465;-81
2022/01/03 00:50:09;;;;;;;10.40;2.27;;;10.00;99.90;;;;;;4995979;28;20419;-81
2022/01/03 00:52:34;;;;;;;15.90;2.90;;;10.00;99.90;;;;;;4997309;28;20863;-81
2022/01/03 00:55:01;;;;;;;12.10;3.40;;;10.00;99.90;;;;;;4979825;28;20472;-82
2022/01/03 00:58:04;;;;;;;9.43;2.67;;;10.00;99.90;;;;;;4996613;28;20308;-82
2022/01/03 01:00:35;;;;;;;7.70;2.80;;;10.10;99.90;;;;;;4995545;28;20452;-81
2022/01/03 01:03:10;;;;;;;9.33;2.43;;;10.20;99.90;;;;;;4995267;28;20912;-81
2022/01/03 01:05:39;;;;;;;8.13;2.27;;;10.20;99.90;;;;;;4995658;28;20440;-81
2022/01/03 01:08:05;;;;;;;15.63;3.33;;;10.10;99.90;;;;;;4996659;28;20821;-81
2022/01/03 01:10:33;;;;;;;5.50;2.40;;;10.10;99.90;;;;;;4996858;28;20417;-82
2022/01/03 01:12:59;;;;;;;11.60;3.07;;;10.10;99.90;;;;;;4996272;28;20264;-82
2022/01/03 01:15:25;;;;;;;6.53;2.80;;;10.10;99.90;;;;;;4979221;28;20914;-82
2022/01/03 01:17:55;;;;;;;12.27;3.03;;;10.10;99.90;;;;;;4994519;28;20216;-82
2022/01/03 01:20:24;;;;;;;9.50;2.53;;;10.00;99.90;;;;;;4996462;28;20417;-81
2022/01/03 01:22:51;;;;;;;5.83;2.67;;;10.10;99.90;;;;;;4995063;28;20425;-81
2022/01/03 01:27:47;;;;;;;7.03;2.37;;;10.20;99.90;;;;;;4996736;28;20460;-81
2022/01/03 01:30:14;;;;;;;8.73;2.63;;;10.20;99.90;;;;;;4992517;28;20425;-81
2022/01/03 01:32:42;;;;;;;13.03;2.70;;;10.20;99.90;;;;;;4993924;28;20432;-81
2022/01/03 01:35:09;;;;;;;13.13;3.00;;;10.30;99.90;;;;;;4995810;28;20774;-81
2022/01/03 01:37:37;;;;;;;11.10;2.90;;;10.30;99.90;;;;;;4994524;28;20930;-81
2022/01/03 01:40:03;;;;;;;10.67;2.83;;;10.30;99.90;;;;;;4994267;28;20838;-81
2022/01/03 01:42:31;;;;;;;6.43;2.50;;;10.40;99.90;;;;;;4994654;28;20500;-81
2022/01/03 01:45:01;;;;;;;7.83;3.20;;;10.40;99.90;;;;;;4994261;28;20444;-81
2022/01/03 01:47:27;;;;;;;12.23;3.00;;;10.40;99.90;;;;;;4995395;28;20401;-81
2022/01/03 01:49:55;;;;;;;8.47;2.27;;;10.40;99.90;;;;;;4995780;28;20421;-81
2022/01/03 01:52:23;;;;;;;9.00;2.57;;;10.40;99.90;;;;;;4994570;28;20439;-82
2022/01/03 01:54:58;;;;;;;7.57;2.00;;;10.30;99.90;;;;;;4994152;28;20441;-81
2022/01/03 01:58:04;;;;;;;7.00;2.97;;;10.30;99.90;;;;;;4995026;28;20935;-81
2022/01/03 02:00:32;;;;;;;9.97;3.00;;;10.40;99.90;;;;;;4957997;28;20891;-81
2022/01/03 02:03:13;;;;;;;10.30;4.10;;;10.40;99.90;;;;;;4995684;28;20409;-81
2022/01/03 02:05:41;;;;;;;11.27;3.03;;;10.50;99.90;;;;;;4995739;28;20429;-81
2022/01/03 02:08:27;;;;;;;7.37;2.63;;;10.40;99.90;;;;;;4977106;28;20546;-81
2022/01/03 02:11:03;;;;;;;8.77;2.40;;;10.40;99.90;;;;;;4977413;28;20439;-81
2022/01/03 02:13:29;;;;;;;11.33;2.50;;;10.30;99.90;;;;;;4977659;28;20417;-80
2022/01/03 02:15:59;;;;;;;7.23;2.47;;;10.30;99.90;;;;;;4995258;28;20447;-81
2022/01/03 02:18:26;;;;;;;8.30;2.83;;;10.30;99.90;;;;;;4994662;28;20440;-82
2022/01/03 02:20:53;;;;;;;7.20;2.30;;;10.30;99.90;;;;;;4977440;28;20436;-81
2022/01/03 02:23:18;;;;;;;7.07;3.10;;;10.20;99.90;;;;;;4977135;28;20483;-81
2022/01/03 02:25:47;;;;;;;7.30;2.30;;;10.20;99.90;;;;;;4990134;23;21521;-81
2022/01/03 02:28:20;;;;;;;7.57;2.93;;;10.10;99.90;;;;;;4992004;28;20754;-81
2022/01/03 02:30:46;;;;;;;5.97;2.13;;;10.10;99.90;;;;;;4976577;28;20413;-81
2022/01/03 02:33:15;;;;;;;7.47;3.00;;;10.10;99.90;;;;;;4976509;28;20429;-82
2022/01/03 02:35:45;;;;;;;6.93;1.97;;;10.10;99.90;;;;;;4992442;28;20440;-81
2022/01/03 02:38:11;;;;;;;8.23;1.77;;;10.10;99.90;;;;;;4976350;28;20441;-81
2022/01/03 02:40:37;;;;;;;7.47;2.07;;;10.10;99.90;;;;;;4976319;28;20440;-81
2022/01/03 02:43:15;;;;;;;8.80;2.50;;;10.20;99.90;;;;;;4976291;28;20433;-82
2022/01/03 02:45:41;;;;;;;6.50;2.03;;;10.10;99.90;;;;;;4976130;28;20287;-81
2022/01/03 02:48:07;;;;;;;10.83;2.60;;;10.10;99.90;;;;;;4976031;28;20502;-81
2022/01/03 02:50:36;;;;;;;8.43;3.27;;;10.10;99.90;;;;;;4976076;28;20177;-81
2022/01/03 02:53:01;;;;;;;10.27;2.20;;;10.10;99.90;;;;;;4976308;28;20418;-81
2022/01/03 02:55:28;;;;;;;7.63;2.53;;;10.20;99.90;;;;;;4975792;28;20424;-81
2022/01/03 02:58:06;;;;;;;10.67;3.20;;;10.30;99.90;;;;;;4975924;28;20546;-81
2022/01/03 03:00:44;;;;;;;6.07;2.70;;;10.30;99.90;;;;;;4975996;28;20424;-81
2022/01/03 03:03:14;;;;;;;11.33;3.50;;;10.30;99.90;;;;;;4976167;28;20425;-81
2022/01/03 03:05:40;;;;;;;6.53;2.77;;;10.30;99.90;;;;;;4975857;28;20883;-82
2022/01/03 03:08:05;;;;;;;8.80;2.20;;;10.30;99.90;;;;;;4975680;28;20503;-82
2022/01/03 03:10:31;;;;;;;7.90;2.47;;;10.30;99.90;;;;;;4993362;28;20413;-80
2022/01/03 03:12:57;;;;;;;5.90;2.43;;;10.20;99.90;;;;;;4993374;28;20181;-83
2022/01/03 03:15:23;;;;;;;12.50;2.87;;;10.10;99.90;;;;;;4975735;28;20269;-83
2022/01/03 03:17:50;;;;;;;5.80;2.73;;;10.10;99.90;;;;;;4976057;28;20240;-81
2022/01/03 03:20:21;;;;;;;7.90;2.80;;;10.10;99.90;;;;;;4981574;28;20428;-80
2022/01/03 03:22:49;;;;;;;6.23;2.67;;;10.10;99.90;;;;;;4976101;28;20423;-81
2022/01/03 03:25:16;;;;;;;7.50;2.60;;;10.10;99.90;;;;;;4976007;28;20424;-82
2022/01/03 03:27:46;;;;;;;7.67;2.43;;;10.10;99.90;;;;;;4993201;28;20907;-81
2022/01/03 03:30:21;;;;;;;7.37;2.70;;;10.10;99.90;;;;;;4975870;28;20428;-81
2022/01/03 03:32:48;;;;;;;8.30;2.47;;;10.10;99.90;;;;;;4993047;28;20846;-81
2022/01/03 03:35:14;;;;;;;8.43;2.53;;;10.10;99.90;;;;;;4975754;28;20467;-82
2022/01/03 03:37:40;;;;;;;7.73;2.07;;;10.10;99.90;;;;;;4975315;28;20459;-82
2022/01/03 03:40:07;;;;;;;8.10;2.23;;;10.10;99.90;;;;;;4975526;28;20807;-81
2022/01/03 03:42:33;;;;;;;7.23;2.37;;;10.10;99.90;;;;;;4975545;28;20425;-81
2022/01/03 03:44:58;;;;;;;13.27;3.43;;;10.00;99.90;;;;;;4975667;28;20454;-81
2022/01/03 03:47:24;;;;;;;6.17;2.47;;;10.00;99.90;;;;;;4974918;28;20205;-81
2022/01/03 03:49:50;;;;;;;9.67;2.70;;;10.00;99.90;;;;;;4975571;28;20177;-82
2022/01/03 03:52:15;;;;;;;10.10;2.50;;;10.00;99.90;;;;;;4992805;28;20213;-82
2022/01/03 03:54:41;;;;;;;9.63;2.40;;;10.00;99.90;;;;;;4977883;28;20273;-81
2022/01/03 03:57:08;;;;;;;11.63;3.00;;;10.00;99.90;;;;;;4999172;28;20193;-81
2022/01/03 03:59:34;;;;;;;13.07;2.37;;;10.00;99.90;;;;;;4981608;28;20235;-82
2022/01/03 04:01:59;;;;;;;12.70;2.63;;;10.00;99.90;;;;;;4999355;28;20425;-81
2022/01/03 04:04:26;;;;;;;12.90;3.00;;;10.00;99.90;;;;;;4981767;28;20486;-81
2022/01/03 04:06:52;;;;;;;7.67;2.47;;;9.90;99.90;;;;;;4981604;28;20193;-81
2022/01/03 04:09:18;;;;;;;5.37;1.80;;;10.00;99.90;;;;;;4981649;28;20877;-81
2022/01/03 04:11:43;;;;;;;9.87;3.00;;;10.00;99.90;;;;;;4999108;28;20208;-81
2022/01/03 04:14:09;;;;;;;7.03;2.07;;;10.00;99.90;;;;;;4981695;28;20178;-80
2022/01/03 04:16:35;;;;;;;10.43;3.00;;;10.00;99.90;;;;;;4981434;28;20216;-81
2022/01/03 04:19:01;;;;;;;8.37;2.67;;;10.00;99.90;;;;;;4981987;28;20239;-81
2022/01/03 04:21:26;;;;;;;7.80;2.30;;;10.00;99.90;;;;;;4999241;28;20252;-81
2022/01/03 04:23:53;;;;;;;5.20;2.20;;;10.10;99.90;;;;;;4981843;28;20522;-81
2022/01/03 04:26:19;;;;;;;5.83;2.50;;;10.10;99.90;;;;;;4981758;28;20220;-81
2022/01/03 04:28:45;;;;;;;4.27;2.40;;;10.10;99.90;;;;;;4998601;28;20462;-81
2022/01/03 04:31:10;;;;;;;13.30;3.10;;;10.10;99.90;;;;;;4998950;28;20417;-82
2022/01/03 04:33:36;;;;;;;11.60;3.30;;;10.10;99.90;;;;;;4981458;28;20572;-81
2022/01/03 04:36:03;;;;;;;8.93;2.30;;;10.00;99.90;;;;;;4981537;28;20201;-81
2022/01/03 04:38:29;;;;;;;4.40;1.83;;;10.00;99.90;;;;;;4981244;28;20451;-82
2022/01/03 04:40:55;;;;;;;10.67;2.50;;;10.00;99.90;;;;;;4998032;28;20431;-81
2022/01/03 04:43:21;;;;;;;8.50;2.23;;;10.00;99.90;;;;;;4981666;28;20413;-80
2022/01/03 04:45:46;;;;;;;5.93;2.23;;;10.00;99.90;;;;;;4981373;28;20201;-81
2022/01/03 04:48:12;;;;;;;11.80;2.63;;;10.00;99.90;;;;;;4988681;28;20206;-82
2022/01/03 04:50:37;;;;;;;12.17;3.97;;;10.00;99.90;;;;;;5002359;28;20209;-82
2022/01/03 04:53:03;;;;;;;12.80;2.90;;;10.00;99.90;;;;;;4984398;28;20185;-83
2022/01/03 04:55:29;;;;;;;7.20;2.73;;;10.00;99.90;;;;;;5001280;28;20178;-81
2022/01/03 04:57:54;;;;;;;7.00;3.00;;;10.00;99.90;;;;;;5000642;28;20247;-83
2022/01/03 05:00:20;;;;;;;8.53;2.73;;;10.00;99.90;;;;;;4983393;28;20228;-83
2022/01/03 05:02:46;;;;;;;13.80;3.40;;;10.00;99.90;;;;;;4983546;28;20190;-83
2022/01/03 05:05:13;;;;;;;8.83;3.47;;;10.00;99.90;;;;;;4982701;28;20956;-82
2022/01/03 05:07:38;;;;;;;4.70;1.87;;;10.00;99.90;;;;;;4979040;28;20475;-82
2022/01/03 05:10:05;;;;;;;7.50;2.53;;;10.00;99.90;;;;;;4997934;28;20405;-83
2022/01/03 05:12:30;;;;;;;10.40;2.80;;;10.00;99.90;;;;;;4980374;28;20177;-83
2022/01/03 05:14:56;;;;;;;9.40;3.57;;;10.00;99.90;;;;;;4979187;28;20467;-81
2022/01/03 05:17:21;;;;;;;5.60;3.00;;;10.10;99.90;;;;;;4980406;28;20272;-84
2022/01/03 05:19:47;;;;;;;7.43;2.50;;;10.10;99.90;;;;;;4999738;28;20181;-82
2022/01/03 05:22:12;;;;;;;7.40;2.27;;;10.10;99.90;;;;;;4980309;28;20177;-83
2022/01/03 05:24:38;;;;;;;4.53;1.90;;;10.10;99.90;;;;;;4979981;28;20219;-82
2022/01/03 05:27:07;;;;;;;8.83;3.00;;;10.10;99.90;;;;;;4981821;28;20703;-84
2022/01/03 05:29:33;;;;;;;6.70;2.10;;;10.00;99.90;;;;;;4981705;28;20214;-81
2022/01/03 05:32:00;;;;;;;8.17;2.40;;;10.00;99.90;;;;;;4982384;28;20449;-81
2022/01/03 05:34:25;;;;;;;5.93;3.13;;;10.00;99.90;;;;;;4999154;28;20478;-82
2022/01/03 05:36:51;;;;;;;11.87;2.70;;;10.10;99.90;;;;;;4979203;28;20437;-82
2022/01/03 05:39:16;;;;;;;8.93;2.10;;;10.20;99.90;;;;;;4979607;28;20178;-81
2022/01/03 05:41:42;;;;;;;5.90;2.70;;;10.10;99.90;;;;;;4998164;28;20240;-81
2022/01/03 05:44:08;;;;;;;6.90;2.53;;;10.10;99.90;;;;;;4997018;28;20575;-82
2022/01/03 05:46:34;;;;;;;10.13;3.40;;;10.10;99.90;;;;;;4979253;28;20217;-81
2022/01/03 05:49:00;;;;;;;8.63;2.90;;;10.10;99.90;;;;;;4979029;28;20213;-82
2022/01/03 05:51:26;;;;;;;5.10;2.50;;;10.10;99.90;;;;;;4979506;28;20846;-81
2022/01/03 05:53:53;;;;;;;8.67;2.77;;;10.10;99.90;;;;;;4980525;28;20186;-81
2022/01/03 05:56:19;;;;;;;8.97;2.30;;;10.10;99.90;;;;;;4979929;28;20201;-80
2022/01/03 05:58:45;;;;;;;9.93;4.27;;;10.10;99.90;;;;;;4979308;28;20991;-82
2022/01/03 06:01:10;;;;;;;16.17;3.57;;;10.20;99.90;;;;;;4980828;28;20433;-81
2022/01/03 06:03:38;;;;;;;8.60;2.47;;;10.10;99.90;;;;;;4980502;28;20436;-81
2022/01/03 06:06:19;;;;;;;8.73;2.60;;;10.20;99.90;;;;;;4978555;28;20591;-81
2022/01/03 06:08:45;;;;;;;6.90;3.37;;;10.20;99.90;;;;;;4980144;28;20465;-83
2022/01/03 06:11:11;;;;;;;12.80;2.33;;;10.30;99.90;;;;;;4997426;28;20444;-82
2022/01/03 06:13:37;;;;;;;11.90;3.53;;;10.30;99.90;;;;;;4996564;28;20233;-81
2022/01/03 06:16:02;;;;;;;11.20;3.00;;;10.40;99.90;;;;;;4978307;28;20232;-81
2022/01/03 06:18:28;;;;;;;8.67;3.60;;;10.40;99.90;;;;;;4978211;28;20217;-81
2022/01/03 06:20:54;;;;;;;7.27;2.80;;;10.40;99.90;;;;;;4979105;28;20460;-83
2022/01/03 06:23:20;;;;;;;7.60;2.77;;;10.30;99.90;;;;;;4997343;28;20229;-84
2022/01/03 06:25:46;;;;;;;6.33;1.77;;;10.30;99.90;;;;;;4978677;28;20712;-83
2022/01/03 06:28:12;;;;;;;8.70;2.80;;;10.30;99.90;;;;;;4978173;28;20461;-82
2022/01/03 06:30:40;;;;;;;6.53;2.47;;;10.40;99.90;;;;;;4996452;28;20236;-82
2022/01/03 06:33:07;;;;;;;7.13;2.80;;;10.40;99.90;;;;;;4996519;28;20413;-83
2022/01/03 06:35:32;;;;;;;10.77;2.67;;;10.40;99.90;;;;;;4996307;28;20424;-82
2022/01/03 06:37:59;;;;;;;7.13;2.23;;;10.40;99.90;;;;;;4978331;28;20413;-82
2022/01/03 06:40:25;;;;;;;7.70;2.30;;;10.40;99.90;;;;;;4978623;28;20181;-83
2022/01/03 06:42:51;;;;;;;9.20;3.43;;;10.40;99.90;;;;;;4978328;28;20788;-82
2022/01/03 06:45:16;;;;;;;9.20;3.03;;;10.30;99.90;;;;;;4978354;28;20248;-82
2022/01/03 06:47:42;;;;;;;8.10;3.87;;;10.30;99.90;;;;;;4978079;28;20975;-82
2022/01/03 06:50:08;;;;;;;8.97;2.03;;;10.20;99.90;;;;;;4978265;28;20233;-82
2022/01/03 06:52:35;;;;;;;7.30;2.57;;;10.20;99.90;;;;;;4994670;28;20405;-82
2022/01/03 06:55:00;;;;;;;8.57;1.80;;;10.20;99.90;;;;;;4977447;28;20424;-82
2022/01/03 06:57:26;;;;;;;8.83;2.83;;;10.20;99.90;;;;;;4977731;28;20441;-82
2022/01/03 06:59:51;;;;;;;9.10;2.80;;;10.20;99.90;;;;;;4995699;28;20177;-83
2022/01/03 07:02:17;;;;;;;8.60;2.50;;;10.20;99.90;;;;;;4978548;28;20237;-83
2022/01/03 07:04:43;;;;;;;7.93;2.07;;;10.30;99.90;;;;;;4977496;28;20177;-81
2022/01/03 07:07:08;;;;;;;10.70;3.33;;;10.30;99.90;;;;;;4975836;28;20213;-81
2022/01/03 07:09:34;;;;;;;6.47;2.30;;;10.30;99.90;;;;;;4975870;28;20216;-81
2022/01/03 07:12:00;;;;;;;4.80;2.23;;;10.30;99.90;;;;;;4976180;28;20178;-81
2022/01/03 07:19:48;;;;;;;8.73;2.80;;;10.20;99.90;;;;;;4993527;28;20181;-81
2022/01/03 07:22:14;;;;;;;5.90;2.43;;;10.20;99.90;;;;;;4975907;28;20496;-81
2022/01/03 07:24:41;;;;;;;9.83;2.90;;;10.20;99.90;;;;;;4976024;28;20937;-80
2022/01/03 07:27:12;;;;;;;5.17;1.87;;;10.10;99.90;;;;;;4975154;28;20543;-81
2022/01/03 07:29:39;;;;;;;10.53;2.43;;;10.00;99.90;;;;;;4992372;28;20448;-81
2022/01/03 07:32:05;;;;;;;5.87;2.20;;;9.90;99.90;;;;;;4975426;28;20455;-81
2022/01/03 07:34:31;;;;;;;5.73;1.80;;;9.80;99.90;;;;;;4993035;28;20413;-81
2022/01/03 07:36:57;;;;;;;9.50;2.00;;;9.90;99.90;;;;;;4992463;28;20858;-81
2022/01/03 07:39:23;;;;;;;6.63;2.80;;;9.90;99.90;;;;;;4993040;28;20188;-81
2022/01/03 07:41:48;;;;;;;8.03;2.77;;;9.90;99.90;;;;;;4975232;28;20182;-81
2022/01/03 07:44:14;;;;;;;9.80;2.60;;;9.90;99.90;;;;;;4984403;28;20797;-81
2022/01/03 07:46:40;;;;;;;10.57;3.13;;;9.90;99.90;;;;;;4974757;28;20202;-81
2022/01/03 07:49:06;;;;;;;8.10;2.80;;;9.90;99.90;;;;;;4975303;28;20464;-83
2022/01/03 07:51:32;;;;;;;9.73;3.00;;;9.90;99.90;;;;;;4992877;28;20178;-81
2022/01/03 07:53:58;;;;;;;7.43;2.80;;;10.00;99.90;;;;;;4975138;28;20237;-81
2022/01/03 07:56:24;;;;;;;8.40;2.27;;;10.10;99.90;;;;;;4975094;28;20464;-81
2022/01/03 07:58:49;;;;;;;6.50;2.40;;;10.10;99.90;;;;;;4974667;28;20978;-82
2022/01/03 08:01:15;;;;;;;14.33;3.13;;;10.10;99.90;;;;;;4992622;28;20193;-81
2022/01/03 08:03:40;;;;;;;4.93;2.50;;;10.10;99.90;;;;;;4975163;28;20181;-81
2022/01/03 08:06:08;;;;;;;11.20;2.67;;;10.00;99.90;;;;;;4992519;28;20714;-82
2022/01/03 08:08:38;;;;;;;11.97;2.50;;;10.00;99.90;;;;;;4974882;28;20581;-81
2022/01/03 08:11:04;;;;;;;5.13;1.83;;;9.90;99.90;;;;;;4975094;28;20436;-82
2022/01/03 08:13:30;;;;;;;8.03;2.30;;;9.90;99.90;;;;;;4975385;28;20417;-82
2022/01/03 08:15:56;;;;;;;8.73;2.33;;;9.80;99.90;;;;;;4992200;28;20803;-80
2022/01/03 08:18:21;;;;;;;8.83;2.60;;;9.70;99.90;;;;;;4992367;28;20406;-81
2022/01/03 08:20:47;;;;;;;11.53;3.10;;;9.70;99.90;;;;;;4975046;28;20181;-80
2022/01/03 08:23:12;;;;;;;7.37;2.60;;;9.70;99.90;;;;;;4992495;28;20263;-81
2022/01/03 08:25:38;;;;;;;11.23;2.80;;;9.70;99.90;;;;;;4991931;28;20213;-81
2022/01/03 08:28:09;;;;;;;9.90;3.10;;;9.80;99.90;;;;;;4974599;28;20205;-79
2022/01/03 08:33:09;;;;;;;6.33;2.60;;;9.90;99.90;;;;;;5007912;28;20476;-80
2022/01/03 08:35:34;;;;;;;5.40;2.27;;;10.00;99.90;;;;;;5010325;28;20446;-80
2022/01/03 08:38:01;;;;;;;10.20;3.20;;;10.00;99.90;;;;;;5011912;28;20244;-79
2022/01/03 08:40:27;;;;;;;9.10;2.80;;;10.00;99.90;;;;;;5014618;28;20189;-79
2022/01/03 08:42:52;;;;;;;9.73;2.93;;;10.00;99.90;;;;;;5016185;28;20436;-79
2022/01/03 08:45:19;;;;;;;7.63;2.87;;;10.10;99.90;;;;;;5015738;28;20181;-81
2022/01/03 08:47:47;;;;;;;10.83;2.93;;;10.10;99.90;;;;;;5016199;28;20251;-80
2022/01/03 08:50:15;;;;;;;5.77;2.53;;;10.10;99.90;;;;;;5015314;28;20424;-81
2022/01/03 08:52:41;;;;;;;10.13;2.87;;;10.20;99.90;;;;;;5015546;28;20896;-81
2022/01/03 08:55:07;;;;;;;8.43;3.20;;;10.20;99.90;;;;;;5015563;28;20502;-78
2022/01/03 08:57:33;;;;;;;9.57;2.63;;;10.30;99.90;;;;;;5016474;28;20710;-79
2022/01/03 08:59:59;;;;;;;10.47;2.80;;;10.30;99.90;;;;;;5015546;28;20420;-80
2022/01/03 09:02:24;;;;;;;7.23;2.80;;;10.30;99.90;;;;;;5016510;28;20197;-82
2022/01/03 09:04:50;;;;;;;7.47;2.90;;;10.40;99.90;;;;;;5016147;28;20185;-84
2022/01/03 09:07:15;;;;;;;8.73;2.60;;;10.40;99.90;;;;;;5019010;28;20177;-82
2022/01/03 09:09:41;;;;;;;8.50;2.43;;;10.50;99.90;;;;;;5015296;28;20299;-82
2022/01/03 09:12:07;;;;;;;11.67;3.27;;;10.50;99.90;;;;;;5016608;28;20734;-81
2022/01/03 09:14:36;;;;;;;11.57;3.53;;;10.60;99.90;;;;;;5016461;28;20793;-80
2022/01/03 09:17:03;;;;;;;9.97;2.40;;;10.60;99.90;;;;;;5015089;28;20937;-80
2022/01/03 09:19:29;;;;;;;9.23;4.00;;;10.60;99.90;;;;;;5015040;28;20455;-82
2022/01/03 09:22:05;;;;;;;8.43;4.17;;;10.60;99.90;;;;;;5014737;28;20977;-81
2022/01/03 09:24:43;;;;;;;12.00;3.30;;;10.70;99.90;;;;;;5014501;28;20411;-80
2022/01/03 09:29:57;;;;;;;10.23;2.67;;;10.70;99.90;;;;;;5016568;28;20785;-81
2022/01/03 09:32:22;;;;;;;6.60;2.53;;;10.70;99.90;;;;;;5015937;28;20448;-79
2022/01/03 09:34:48;;;;;;;6.57;3.00;;;10.70;99.90;;;;;;5014228;28;20204;-80
2022/01/03 09:37:19;;;;;;;8.23;2.80;;;10.70;99.90;;;;;;5015041;28;20656;-82
2022/01/03 09:39:46;;;;;;;7.90;3.37;;;10.70;99.90;;;;;;5016545;28;20177;-82
2022/01/03 09:42:14;;;;;;;6.63;2.07;;;10.70;99.90;;;;;;5016987;28;20468;-82
2022/01/03 09:44:44;;;;;;;9.67;2.43;;;10.80;99.90;;;;;;5016825;28;20923;-82
2022/01/03 09:47:13;;;;;;;6.80;2.10;;;10.90;99.90;;;;;;5017966;28;20414;-83
2022/01/03 09:49:40;;;;;;;7.07;2.87;;;11.00;99.90;;;;;;5015988;28;20905;-82
2022/01/03 09:52:07;;;;;;;6.57;2.53;;;11.10;99.90;;;;;;5016957;28;20801;-82
2022/01/03 09:54:33;;;;;;;8.20;2.87;;;11.10;99.90;;;;;;5017909;28;20904;-81
2022/01/03 09:57:00;;;;;;;6.83;2.30;;;11.20;99.90;;;;;;5015694;28;20420;-82
2022/01/03 09:59:28;;;;;;;10.43;2.40;;;11.20;99.90;;;;;;5017548;28;20494;-82
2022/01/03 10:01:54;;;;;;;9.23;2.80;;;11.30;99.90;;;;;;5016090;28;20497;-82
2022/01/03 10:04:19;;;;;;;12.77;3.00;;;11.30;99.90;;;;;;5017182;28;20420;-82
2022/01/03 10:06:45;;;;;;;5.00;2.17;;;11.20;99.90;;;;;;5014883;28;20428;-81
2022/01/03 10:09:12;;;;;;;5.90;3.17;;;11.40;99.90;;;;;;5015954;28;20201;-81
2022/01/03 10:11:38;;;;;;;6.13;2.93;;;11.50;99.90;;;;;;5016781;28;20189;-82
2022/01/03 10:14:03;;;;;;;8.47;2.93;;;11.60;99.90;;;;;;4996759;28;20431;-82
2022/01/03 10:16:29;;;;;;;4.73;2.10;;;11.70;99.90;;;;;;4999152;28;20412;-81
2022/01/03 10:18:55;;;;;;;7.93;3.17;;;11.80;99.90;;;;;;5017859;28;20212;-81
2022/01/03 10:21:45;;;;;;;4.93;2.60;;;11.90;99.90;;;;;;5018274;28;20818;-81
2022/01/03 10:24:13;;;;;;;11.57;2.90;;;11.90;99.90;;;;;;5016965;28;20454;-82
2022/01/03 10:26:42;;;;;;;7.23;2.60;;;12.00;99.90;;;;;;4997384;28;20416;-82
2022/01/03 10:29:22;;;;;;;5.60;2.23;;;12.10;99.90;;;;;;5016628;28;20456;-81
2022/01/03 10:31:50;;;;;;;9.37;2.70;;;12.20;99.90;;;;;;4999340;28;20555;-81
2022/01/03 10:34:19;;;;;;;8.33;2.47;;;12.40;99.90;;;;;;4997780;28;20416;-82
2022/01/03 10:36:47;;;;;;;6.27;2.03;;;12.50;99.90;;;;;;5013800;28;20415;-82
2022/01/03 10:39:30;;;;;;;7.50;2.80;;;12.70;99.90;;;;;;5013107;28;20408;-82
2022/01/03 10:42:21;;;;;;;11.50;3.13;;;12.70;99.90;;;;;;4995497;28;20852;-81
2022/01/03 10:44:47;;;;;;;11.40;4.27;;;12.60;99.90;;;;;;5013124;28;20408;-81
2022/01/03 10:47:29;;;;;;;7.20;3.40;;;12.60;99.90;;;;;;5012944;28;20439;-81
2022/01/03 10:49:55;;;;;;;6.37;2.20;;;12.50;99.90;;;;;;5012798;28;20484;-81
2022/01/03 10:52:27;;;;;;;12.07;3.10;;;12.40;99.90;;;;;;4995504;28;20515;-80
2022/01/03 10:55:17;;;;;;;12.63;3.10;;;12.30;99.90;;;;;;4995696;28;20416;-80
2022/01/03 10:57:44;;;;;;;7.40;2.73;;;12.10;99.90;;;;;;4995190;28;20416;-81
2022/01/03 11:00:24;;;;;;;6.27;2.30;;;12.20;99.90;;;;;;4995477;28;20919;-81
2022/01/03 11:03:05;;;;;;;13.50;4.23;;;12.20;99.90;;;;;;5012881;28;20477;-80
2022/01/03 11:05:38;;;;;;;7.40;2.00;;;12.10;99.90;;;;;;5012176;28;20435;-80
2022/01/03 11:10:43;;;;;;;9.33;2.20;;;12.30;99.90;;;;;;5013258;28;20511;-80
2022/01/03 11:13:16;;;;;;;11.50;2.70;;;12.30;99.90;;;;;;4995371;28;20463;-79
2022/01/03 11:15:56;;;;;;;8.00;2.40;;;12.30;99.90;;;;;;4994823;28;20420;-80
2022/01/03 11:18:32;;;;;;;6.30;2.20;;;12.20;99.90;;;;;;4994420;28;20439;-80
2022/01/03 11:21:23;;;;;;;9.60;2.50;;;12.20;99.90;;;;;;5011730;28;20448;-79
2022/01/03 11:24:09;;;;;;;6.87;2.13;;;12.30;99.90;;;;;;4991872;28;20428;-79
2022/01/03 11:26:40;;;;;;;7.20;2.70;;;12.30;99.90;;;;;;5005398;28;20430;-79
2022/01/03 11:29:06;;;;;;;4.00;1.83;;;12.40;99.90;;;;;;5012683;28;20444;-79
2022/01/03 11:31:38;;;;;;;8.03;4.00;;;12.40;99.90;;;;;;5012571;28;20456;-80
2022/01/03 11:34:05;;;;;;;7.23;1.80;;;12.40;99.90;;;;;;4995319;28;20416;-79
2022/01/03 11:36:31;;;;;;;9.80;1.97;;;12.40;99.90;;;;;;4994646;28;20467;-81
2022/01/03 11:39:04;;;;;;;3.97;1.60;;;12.40;99.90;;;;;;5012439;28;20412;-79
2022/01/03 11:41:31;;;;;;;5.90;1.97;;;12.30;99.90;;;;;;5012575;28;20935;-82
2022/01/03 11:43:56;;;;;;;5.13;2.27;;;12.30;99.90;;;;;;4995523;28;20416;-81
2022/01/03 11:46:23;;;;;;;5.67;2.70;;;12.30;99.90;;;;;;5013025;28;20419;-82
2022/01/03 11:48:51;;;;;;;6.77;2.20;;;12.20;99.90;;;;;;4995455;28;20208;-82
2022/01/03 11:51:17;;;;;;;6.87;2.00;;;12.10;99.90;;;;;;4994623;28;20435;-81
2022/01/03 11:53:47;;;;;;;8.33;2.57;;;12.00;99.90;;;;;;5012946;28;20412;-81
2022/01/03 11:56:21;;;;;;;5.93;2.30;;;11.90;99.90;;;;;;5012435;28;20494;-80
2022/01/03 11:59:05;;;;;;;4.83;2.20;;;11.90;99.90;;;;;;4995346;28;20794;-82
2022/01/03 12:04:40;;;;;;;6.00;1.83;;;12.00;99.90;;;;;;4993545;28;20460;-80
2022/01/03 12:07:13;;;;;;;4.37;2.13;;;12.20;99.90;;;;;;4993404;28;20517;-79
2022/01/03 12:09:47;;;;;;;7.93;2.20;;;12.20;99.90;;;;;;4992901;28;20511;-80
2022/01/03 12:12:38;;;;;;;4.33;1.93;;;12.10;99.90;;;;;;4993328;28;20528;-81
2022/01/03 12:15:25;;;;;;;12.73;2.73;;;12.20;99.90;;;;;;4975900;28;20476;-82
2022/01/03 12:17:50;;;;;;;5.10;2.37;;;12.30;99.90;;;;;;4996816;28;20824;-81
2022/01/03 12:20:16;;;;;;;6.23;2.70;;;12.30;99.90;;;;;;4997045;28;20408;-81
2022/01/03 12:22:53;;;;;;;6.17;2.37;;;12.30;99.90;;;;;;4979202;28;20193;-81
2022/01/03 12:25:32;;;;;;;15.17;3.10;;;12.30;99.90;;;;;;4996730;28;20181;-81
2022/01/03 12:28:03;;;;;;;6.67;4.00;;;12.20;99.90;;;;;;4979290;28;20464;-81
2022/01/03 12:30:30;;;;;;;5.30;2.37;;;12.20;99.90;;;;;;4996894;28;20919;-80
2022/01/03 12:33:05;;;;;;;7.60;2.60;;;12.20;99.90;;;;;;4996427;28;20448;-80
2022/01/03 12:35:31;;;;;;;7.07;1.97;;;12.20;99.90;;;;;;5010919;28;20505;-81
2022/01/03 12:38:03;;;;;;;7.57;2.43;;;12.00;99.90;;;;;;4998565;28;20834;-80
2022/01/03 12:40:33;;;;;;;7.20;2.43;;;11.90;99.90;;;;;;4998621;28;20426;-81
2022/01/03 12:43:06;;;;;;;8.73;2.70;;;11.80;99.90;;;;;;5016042;28;20444;-80
2022/01/03 12:45:34;;;;;;;9.30;2.70;;;11.80;99.90;;;;;;5017645;28;20419;-81
2022/01/03 12:48:09;;;;;;;10.73;2.50;;;11.70;99.90;;;;;;5017747;28;20458;-80
2022/01/03 12:50:46;;;;;;;10.70;2.33;;;11.60;99.90;;;;;;5017892;28;20412;-81
2022/01/03 12:53:31;;;;;;;6.63;2.73;;;11.60;99.90;;;;;;5018284;28;20436;-79
2022/01/03 12:56:12;;;;;;;5.93;2.40;;;11.40;99.90;;;;;;5018001;28;20946;-81
2022/01/03 12:58:44;;;;;;;9.03;2.80;;;11.30;99.90;;;;;;5017465;28;20774;-81
2022/01/03 13:01:15;;;;;;;9.20;3.30;;;11.20;99.90;;;;;;5015588;28;20432;-80
2022/01/03 13:03:43;;;;;;;7.93;2.37;;;11.20;99.90;;;;;;5015754;28;20412;-78
2022/01/03 13:06:21;;;;;;;5.20;2.40;;;11.10;99.90;;;;;;5015580;28;20415;-80
2022/01/03 13:08:55;;;;;;;7.20;2.70;;;11.10;99.90;;;;;;5015517;28;20884;-79
2022/01/03 13:11:24;;;;;;;8.70;2.10;;;11.10;99.90;;;;;;4997422;28;20440;-79